Terminal Aerodrome Forecast
Issued by NWS Pittsburgh, PA

Current Version | Previous Version | Graphics & Text | Print | Product List | Glossary On
Versions: 1 2 3 4 5 6 7 8 9 10 11 12 13 14 15 16 17 18 19 20 21 22 23 24 25 26 27 28 29 30 31 32 33 34
013
FTUS41 KPBZ 251326 AAA
TAFPIT
TAF AMD
KPIT 251326Z 2513/2618 10007KT P6SM -RA OVC007
     FM251600 20007KT P6SM VCSH OVC025
     FM251800 21008KT P6SM VCSH OVC040
     FM252300 24005KT P6SM -SHRA OVC025
     FM260300 24005KT 3SM -SHRA OVC005
     FM261600 27009KT P6SM BKN015=

USA.gov is the U.S. government's official web portal to all federal, state and local government web resources and services.